createdAt,value
2023-04-28T00:00:26.028Z,34.53
2023-04-28T00:01:25.972Z,34.57
2023-04-28T00:02:26.076Z,34.54
2023-04-28T00:03:26.085Z,34.57
2023-04-28T00:04:26.443Z,34.50
2023-04-28T00:05:26.053Z,34.54
2023-04-28T00:06:25.959Z,34.54
2023-04-28T00:07:25.970Z,34.50
2023-04-28T00:08:25.945Z,34.52
2023-04-28T00:09:25.925Z,34.53
2023-04-28T00:10:26.038Z,34.48
2023-04-28T00:11:25.947Z,34.45
2023-04-28T00:12:25.918Z,34.54
2023-04-28T00:13:25.889Z,34.47
2023-04-28T00:14:25.909Z,34.50
2023-04-28T00:15:25.896Z,34.47
2023-04-28T00:16:26.014Z,34.47
2023-04-28T00:17:25.966Z,34.48
2023-04-28T00:18:25.894Z,34.44
2023-04-28T00:19:25.857Z,34.45
2023-04-28T00:20:26.045Z,34.44
2023-04-28T00:21:25.842Z,34.47
2023-04-28T00:22:25.819Z,34.38
2023-04-28T00:23:25.864Z,34.44
2023-04-28T00:24:25.800Z,34.42
2023-04-28T00:25:25.842Z,34.44
2023-04-28T00:26:25.826Z,34.42
2023-04-28T00:27:25.761Z,34.42
2023-04-28T00:29:25.796Z,34.41
2023-04-28T00:30:25.789Z,34.38
2023-04-28T00:31:25.877Z,34.42
2023-04-28T00:32:25.826Z,34.38
2023-04-28T00:33:25.767Z,34.39
2023-04-28T00:34:25.744Z,34.40
2023-04-28T00:35:26.034Z,34.38
2023-04-28T00:36:25.727Z,34.34
2023-04-28T00:37:25.693Z,34.37
2023-04-28T00:38:25.719Z,34.37
2023-04-28T00:39:25.717Z,34.35
2023-04-28T00:40:25.722Z,34.31
2023-04-28T00:41:25.689Z,34.35
2023-04-28T00:42:25.666Z,34.34
2023-04-28T00:43:25.650Z,34.34
2023-04-28T00:44:25.656Z,34.31
2023-04-28T00:45:26.060Z,34.34
2023-04-28T00:46:25.675Z,34.28
2023-04-28T00:47:25.663Z,34.32
2023-04-28T00:48:25.711Z,34.31
2023-04-28T00:49:25.640Z,34.31
2023-04-28T00:50:26.037Z,34.34
2023-04-28T00:51:25.614Z,34.32
2023-04-28T00:52:25.603Z,34.25
2023-04-28T00:53:25.609Z,34.28
2023-04-28T00:54:25.623Z,34.28
2023-04-28T00:55:25.592Z,34.28
2023-04-28T00:56:25.591Z,34.25
2023-04-28T00:57:25.620Z,34.19
2023-04-28T00:58:25.570Z,34.24
2023-04-28T00:59:25.539Z,34.24
2023-04-28T01:00:25.543Z,34.22
2023-04-28T01:01:25.649Z,34.22
2023-04-28T01:02:25.616Z,34.22
2023-04-28T01:03:25.691Z,34.21
2023-04-28T01:04:25.605Z,34.21
2023-04-28T01:05:25.554Z,34.22
2023-04-28T01:06:25.510Z,34.22
2023-04-28T01:07:25.525Z,34.19
2023-04-28T01:08:25.469Z,34.18
2023-04-28T01:09:25.500Z,34.19
2023-04-28T01:10:25.565Z,34.14
2023-04-28T01:11:25.497Z,34.15
2023-04-28T01:12:25.504Z,34.13
2023-04-28T01:13:25.476Z,34.16
2023-04-28T01:14:25.547Z,34.14
2023-04-28T01:15:25.578Z,34.18
2023-04-28T01:16:25.514Z,34.21
2023-04-28T01:17:25.523Z,34.12
2023-04-28T01:18:25.437Z,34.11
2023-04-28T01:19:25.422Z,34.11
2023-04-28T01:20:25.600Z,34.12
2023-04-28T01:21:25.409Z,34.11
2023-04-28T01:22:25.413Z,34.09
2023-04-28T01:23:25.452Z,34.10
2023-04-28T01:24:25.376Z,34.15
2023-04-28T01:25:25.387Z,34.12
2023-04-28T01:26:25.397Z,34.06
2023-04-28T01:27:25.360Z,34.07
2023-04-28T01:28:25.394Z,34.08
2023-04-28T01:29:25.377Z,34.07
2023-04-28T01:30:25.549Z,34.08
2023-04-28T01:31:25.384Z,34.05
2023-04-28T01:32:25.386Z,34.09
2023-04-28T01:33:25.322Z,34.05
2023-04-28T01:34:25.347Z,34.04
2023-04-28T01:35:25.569Z,34.05
2023-04-28T01:36:25.308Z,34.01
2023-04-28T01:37:25.331Z,34.04
2023-04-28T01:38:25.313Z,34.05
2023-04-28T01:39:25.257Z,34.01
2023-04-28T01:40:25.264Z,34.06
2023-04-28T01:41:25.263Z,34.05
2023-04-28T01:42:25.281Z,33.98
2023-04-28T01:43:25.238Z,34.03
2023-04-28T01:44:25.248Z,34.03
2023-04-28T01:45:25.256Z,34.01
2023-04-28T01:46:25.255Z,33.98
2023-04-28T01:47:25.301Z,34.04
2023-04-28T01:48:25.229Z,33.98
2023-04-28T01:49:25.207Z,33.98
2023-04-28T01:50:25.179Z,34.02
2023-04-28T01:51:25.220Z,34.05
2023-04-28T01:52:25.209Z,34.00
2023-04-28T01:53:25.179Z,34.03
2023-04-28T01:54:25.142Z,33.97
2023-04-28T01:55:25.166Z,33.99
2023-04-28T01:56:25.151Z,33.95
2023-04-28T01:57:25.142Z,33.97
2023-04-28T01:58:25.150Z,33.94
2023-04-28T01:59:25.152Z,33.97
2023-04-28T02:00:25.157Z,33.91
2023-04-28T02:01:25.175Z,33.95
2023-04-28T02:02:25.151Z,33.98
2023-04-28T02:03:25.347Z,33.89
2023-04-28T02:04:25.163Z,33.94
2023-04-28T02:05:25.567Z,33.91
2023-04-28T02:06:25.068Z,33.91
2023-04-28T02:07:25.101Z,33.88
2023-04-28T02:08:25.075Z,33.88
2023-04-28T02:09:25.048Z,33.87
2023-04-28T02:10:25.609Z,33.91
2023-04-28T02:11:25.072Z,33.89
2023-04-28T02:12:25.045Z,33.89
2023-04-28T02:13:25.051Z,33.92
2023-04-28T02:14:25.054Z,33.88
2023-04-28T02:15:25.017Z,33.89
2023-04-28T02:16:25.100Z,33.88
2023-04-28T02:17:25.097Z,33.91
2023-04-28T02:18:24.981Z,33.85
2023-04-28T02:19:24.995Z,33.89
2023-04-28T02:20:24.982Z,33.86
2023-04-28T02:21:24.964Z,33.92
2023-04-28T02:22:24.976Z,33.84
2023-04-28T02:23:24.985Z,33.85
2023-04-28T02:24:24.948Z,33.87
2023-04-28T02:25:24.929Z,33.85
2023-04-28T02:26:24.925Z,33.81
2023-04-28T02:27:24.946Z,33.82
2023-04-28T02:28:24.919Z,33.82
2023-04-28T02:29:24.914Z,33.83
2023-04-28T02:30:24.925Z,33.84
2023-04-28T02:31:24.989Z,33.84
2023-04-28T02:32:24.928Z,33.82
2023-04-28T02:33:24.958Z,33.82
2023-04-28T02:34:24.899Z,33.84
2023-04-28T02:35:24.879Z,33.81
2023-04-28T02:36:24.870Z,33.77
2023-04-28T02:37:24.829Z,33.76
2023-04-28T02:38:24.853Z,33.78
2023-04-28T02:39:24.841Z,33.79
2023-04-28T02:40:24.840Z,33.79
2023-04-28T02:41:25.058Z,33.78
2023-04-28T02:42:24.825Z,33.75
2023-04-28T02:43:24.802Z,33.78
2023-04-28T02:44:24.811Z,33.78
2023-04-28T02:45:24.771Z,33.77
2023-04-28T02:46:24.812Z,33.78
2023-04-28T02:47:24.798Z,33.75
2023-04-28T02:48:24.789Z,33.71
2023-04-28T02:49:24.793Z,33.78
2023-04-28T02:50:24.773Z,33.72
2023-04-28T02:51:24.787Z,33.75
2023-04-28T02:52:24.779Z,33.75
2023-04-28T02:53:24.799Z,33.76
2023-04-28T02:54:24.813Z,33.75
2023-04-28T02:55:24.822Z,33.72
2023-04-28T02:56:24.850Z,33.68
2023-04-28T02:57:24.877Z,33.71
2023-04-28T02:58:24.872Z,33.71
2023-04-28T02:59:24.914Z,33.69
2023-04-28T03:00:24.903Z,33.69
2023-04-28T03:01:25.014Z,33.73
2023-04-28T03:02:25.008Z,33.71
2023-04-28T03:03:25.060Z,33.69
2023-04-28T03:04:25.146Z,33.69
2023-04-28T03:05:24.981Z,33.72
2023-04-28T03:06:25.002Z,33.68
2023-04-28T03:07:25.008Z,33.68
2023-04-28T03:08:25.005Z,33.72
2023-04-28T03:09:25.028Z,33.71
2023-04-28T03:10:25.084Z,33.68
2023-04-28T03:11:25.600Z,33.68
2023-04-28T03:12:25.071Z,33.68
2023-04-28T03:13:25.116Z,33.65
2023-04-28T03:14:25.141Z,33.72
2023-04-28T03:15:25.157Z,33.68
2023-04-28T03:16:25.276Z,33.64
2023-04-28T03:17:25.218Z,33.65
2023-04-28T03:18:25.203Z,33.64
2023-04-28T03:19:25.220Z,33.66
2023-04-28T03:20:25.240Z,33.64
2023-04-28T03:21:25.262Z,33.69
2023-04-28T03:22:25.254Z,33.65
2023-04-28T03:23:25.364Z,33.65
2023-04-28T03:24:25.316Z,33.68
2023-04-28T03:25:25.315Z,33.66
2023-04-28T03:26:25.351Z,33.61
2023-04-28T03:27:25.353Z,33.64
2023-04-28T03:28:25.383Z,33.64
2023-04-28T03:29:25.453Z,33.64
2023-04-28T03:30:25.414Z,33.65
2023-04-28T03:31:25.492Z,33.65
2023-04-28T03:32:25.488Z,33.62
2023-04-28T03:33:25.483Z,33.61
2023-04-28T03:34:25.503Z,33.61
2023-04-28T03:35:25.540Z,33.62
2023-04-28T03:36:25.529Z,33.62
2023-04-28T03:37:25.603Z,33.61
2023-04-28T03:38:25.586Z,33.62
2023-04-28T03:39:25.585Z,33.60
2023-04-28T03:40:25.623Z,33.58
2023-04-28T03:41:25.641Z,33.64
2023-04-28T03:42:25.666Z,33.60
2023-04-28T03:43:25.688Z,33.62
2023-04-28T03:44:25.702Z,33.60
2023-04-28T03:45:25.717Z,33.60
2023-04-28T03:46:25.865Z,33.60
2023-04-28T03:47:25.751Z,33.56
2023-04-28T03:48:25.791Z,33.59
2023-04-28T03:49:25.825Z,33.55
2023-04-28T03:50:26.636Z,33.55
2023-04-28T03:51:25.850Z,33.56
2023-04-28T03:52:25.893Z,33.61
2023-04-28T03:53:25.932Z,33.59
2023-04-28T03:54:25.922Z,33.55
2023-04-28T03:55:26.127Z,33.55
2023-04-28T03:56:25.971Z,33.59
2023-04-28T03:57:25.980Z,33.55
2023-04-28T03:58:26.029Z,33.62
2023-04-28T03:59:26.042Z,33.52
2023-04-28T04:00:26.072Z,33.59
2023-04-28T04:01:26.314Z,33.58
2023-04-28T04:02:26.197Z,33.55
2023-04-28T04:03:26.378Z,33.55
2023-04-28T04:04:26.544Z,33.55
2023-04-28T04:05:26.155Z,33.55
2023-04-28T04:06:26.179Z,33.55
2023-04-28T04:07:26.182Z,33.52
2023-04-28T04:08:26.185Z,33.55
2023-04-28T04:09:26.239Z,33.56
2023-04-28T04:10:26.216Z,33.53
2023-04-28T04:11:26.599Z,33.55
2023-04-28T04:12:26.254Z,33.53
2023-04-28T04:13:26.310Z,33.56
2023-04-28T04:14:26.339Z,33.48
2023-04-28T04:15:26.360Z,33.52
2023-04-28T04:16:26.531Z,33.55
2023-04-28T04:17:26.418Z,33.55
2023-04-28T04:18:26.435Z,33.56
2023-04-28T04:19:26.455Z,33.58
2023-04-28T04:20:26.491Z,33.55
2023-04-28T04:21:26.492Z,33.55
2023-04-28T04:22:26.507Z,33.50
2023-04-28T04:23:26.570Z,33.47
2023-04-28T04:24:26.552Z,33.50
2023-04-28T04:25:26.580Z,33.50
2023-04-28T04:26:27.099Z,33.50
2023-04-28T04:27:26.639Z,33.50
2023-04-28T04:28:26.642Z,33.53
2023-04-28T04:29:26.692Z,33.47
2023-04-28T04:30:26.754Z,33.52
2023-04-28T04:31:26.739Z,33.50
2023-04-28T04:32:26.797Z,33.55
2023-04-28T04:33:26.811Z,33.52
2023-04-28T04:34:26.789Z,33.49
2023-04-28T04:35:26.873Z,33.47
2023-04-28T04:36:27.119Z,33.43
2023-04-28T04:37:26.909Z,33.47
2023-04-28T04:38:26.954Z,33.47
2023-04-28T04:39:26.995Z,33.47
2023-04-28T04:40:26.982Z,33.53
2023-04-28T04:41:27.035Z,33.47
2023-04-28T04:42:27.048Z,33.44
2023-04-28T04:43:27.041Z,33.44
2023-04-28T04:44:27.117Z,33.47
2023-04-28T04:45:27.122Z,33.43
2023-04-28T04:46:27.157Z,33.41
2023-04-28T04:47:27.164Z,33.47
2023-04-28T04:48:27.211Z,33.47
2023-04-28T04:49:27.235Z,33.49
2023-04-28T04:50:27.237Z,33.44
2023-04-28T04:51:27.275Z,33.44
2023-04-28T04:52:27.305Z,33.41
2023-04-28T04:53:27.343Z,33.49
2023-04-28T04:54:27.368Z,33.43
2023-04-28T04:55:27.416Z,33.43
2023-04-28T04:56:27.423Z,33.44
2023-04-28T04:57:27.565Z,33.44
2023-04-28T04:58:27.494Z,33.45
2023-04-28T04:59:27.506Z,33.47
2023-04-28T05:00:27.542Z,33.39
2023-04-28T05:01:27.661Z,33.39
2023-04-28T05:02:27.647Z,33.43
2023-04-28T05:03:27.699Z,33.38
2023-04-28T05:04:27.980Z,33.43
2023-04-28T05:05:27.778Z,33.41
2023-04-28T05:06:28.124Z,33.43
2023-04-28T05:07:27.744Z,33.45
2023-04-28T05:08:27.782Z,33.43
2023-04-28T05:09:27.806Z,33.36
2023-04-28T05:10:27.865Z,33.41
2023-04-28T05:11:28.115Z,33.38
2023-04-28T05:12:27.909Z,33.39
2023-04-28T05:13:27.937Z,33.41
2023-04-28T05:14:27.988Z,33.36
2023-04-28T05:15:28.010Z,33.38
2023-04-28T05:16:28.131Z,33.37
2023-04-28T05:17:28.131Z,33.39
2023-04-28T05:18:28.182Z,33.38
2023-04-28T05:19:28.178Z,33.40
2023-04-28T05:20:28.214Z,33.39
2023-04-28T05:21:28.221Z,33.36
2023-04-28T05:22:28.250Z,33.35
2023-04-28T05:23:28.268Z,33.39
2023-04-28T05:24:28.298Z,33.36
2023-04-28T05:25:28.362Z,33.41
2023-04-28T05:26:28.420Z,33.33
2023-04-28T05:27:28.441Z,33.33
2023-04-28T05:28:28.460Z,33.36
2023-04-28T05:29:28.478Z,33.39
2023-04-28T05:30:28.550Z,33.38
2023-04-28T05:31:28.619Z,33.38
2023-04-28T05:32:28.622Z,33.38
2023-04-28T05:33:28.639Z,33.35
2023-04-28T05:34:28.680Z,33.38
2023-04-28T05:35:29.651Z,33.33
2023-04-28T05:36:28.718Z,33.36
2023-04-28T05:37:28.761Z,33.30
2023-04-28T05:38:28.786Z,33.33
2023-04-28T05:39:28.833Z,33.31
2023-04-28T05:40:28.872Z,33.33
2023-04-28T05:41:29.129Z,33.35
2023-04-28T05:42:28.940Z,33.35
2023-04-28T05:43:28.983Z,33.38
2023-04-28T05:44:29.001Z,33.33
2023-04-28T05:45:29.054Z,33.40
2023-04-28T05:46:30.962Z,33.38
2023-04-28T05:47:29.173Z,33.36
2023-04-28T05:48:29.189Z,33.36
2023-04-28T05:49:29.198Z,33.36
2023-04-28T05:50:29.204Z,33.39
2023-04-28T05:51:29.672Z,33.44
2023-04-28T05:52:29.273Z,33.43
2023-04-28T05:53:29.296Z,33.51
2023-04-28T05:54:29.343Z,33.64
2023-04-28T05:55:29.403Z,33.65
2023-04-28T05:56:29.418Z,33.75
2023-04-28T05:57:32.083Z,33.85
2023-04-28T05:58:30.464Z,33.81
2023-04-28T05:59:29.442Z,33.95
2023-04-28T06:00:29.533Z,34.03
2023-04-28T06:01:29.633Z,34.16
2023-04-28T06:02:29.565Z,34.36
2023-04-28T06:03:29.654Z,34.71
2023-04-28T06:04:29.801Z,34.82
2023-04-28T06:05:29.782Z,34.89
2023-04-28T06:06:29.547Z,34.80
2023-04-28T06:07:29.397Z,35.17
2023-04-28T06:08:29.396Z,35.16
2023-04-28T06:09:29.380Z,34.76
2023-04-28T06:10:29.388Z,35.18
2023-04-28T06:11:29.651Z,35.28
2023-04-28T06:12:29.388Z,35.27
2023-04-28T06:13:29.430Z,35.14
2023-04-28T06:14:29.475Z,35.25
2023-04-28T06:15:29.480Z,35.52
2023-04-28T06:16:29.566Z,35.60
2023-04-28T06:17:29.581Z,35.50
2023-04-28T06:18:29.607Z,35.54
2023-04-28T06:19:29.611Z,35.55
2023-04-28T06:20:29.667Z,35.42
2023-04-28T06:21:29.663Z,35.53
2023-04-28T06:22:30.155Z,35.81
2023-04-28T06:23:29.727Z,35.79
2023-04-28T06:24:29.745Z,35.93
2023-04-28T06:25:29.769Z,35.81
2023-04-28T06:26:29.788Z,35.74
2023-04-28T06:27:30.157Z,36.02
2023-04-28T06:28:29.815Z,36.03
2023-04-28T06:29:29.845Z,36.15
2023-04-28T06:30:29.876Z,35.86
2023-04-28T06:31:29.911Z,36.15
2023-04-28T06:32:30.146Z,36.13
2023-04-28T06:33:29.911Z,36.20
2023-04-28T06:34:29.928Z,36.19
2023-04-28T06:35:29.922Z,35.50
2023-04-28T06:36:29.936Z,35.66
2023-04-28T06:37:29.947Z,35.55
2023-04-28T06:38:29.955Z,35.63
2023-04-28T06:39:29.943Z,35.68
2023-04-28T06:40:29.966Z,35.96
2023-04-28T06:41:29.976Z,36.19
2023-04-28T06:42:29.946Z,36.47
2023-04-28T06:43:29.997Z,36.68
2023-04-28T06:44:30.017Z,36.53
2023-04-28T06:45:30.074Z,36.46
2023-04-28T06:46:30.193Z,36.71
2023-04-28T06:47:30.238Z,36.85
2023-04-28T06:48:30.301Z,36.90
2023-04-28T06:49:30.349Z,36.96
2023-04-28T06:50:30.451Z,37.14
2023-04-28T06:51:30.475Z,37.07
2023-04-28T06:52:38.581Z,37.16
2023-04-28T06:53:31.483Z,36.87
2023-04-28T06:54:30.505Z,37.22
2023-04-28T06:55:30.477Z,36.99
2023-04-28T06:56:30.485Z,37.06
2023-04-28T06:57:30.481Z,37.06
2023-04-28T06:58:30.477Z,37.42
2023-04-28T06:59:30.459Z,36.98
2023-04-28T07:00:30.507Z,36.97
2023-04-28T07:01:30.546Z,37.25
2023-04-28T07:02:30.776Z,37.21
2023-04-28T07:03:30.708Z,37.11
2023-04-28T07:04:30.631Z,37.36
2023-04-28T07:05:30.654Z,37.30
2023-04-28T07:06:30.872Z,37.31
2023-04-28T07:07:30.733Z,37.34
2023-04-28T07:08:30.787Z,37.41
2023-04-28T07:09:31.478Z,37.43
2023-04-28T07:10:30.823Z,37.52
2023-04-28T07:11:30.869Z,37.74
2023-04-28T07:12:30.878Z,37.99
2023-04-28T07:13:30.895Z,37.85
2023-04-28T07:14:30.927Z,37.80
2023-04-28T07:15:30.972Z,37.83
2023-04-28T07:16:30.989Z,37.89
2023-04-28T07:17:31.032Z,37.91
2023-04-28T07:18:31.012Z,38.00
2023-04-28T07:19:31.042Z,37.78
2023-04-28T07:20:31.040Z,37.83
2023-04-28T07:21:31.037Z,37.97
2023-04-28T07:22:31.089Z,38.13
2023-04-28T07:23:31.098Z,38.01
2023-04-28T07:24:31.100Z,38.24
2023-04-28T07:25:31.116Z,38.21
2023-04-28T07:26:31.115Z,38.08
2023-04-28T07:27:31.116Z,38.23
2023-04-28T07:28:31.128Z,38.40
2023-04-28T07:29:31.094Z,38.37
2023-04-28T07:30:31.140Z,38.64
2023-04-28T07:31:31.145Z,38.62
2023-04-28T07:32:32.159Z,38.60
2023-04-28T07:33:31.145Z,38.43
2023-04-28T07:34:31.248Z,38.46
2023-04-28T07:35:31.296Z,38.47
2023-04-28T07:36:31.112Z,38.58
2023-04-28T07:37:31.912Z,38.71
2023-04-28T07:38:31.142Z,38.70
2023-04-28T07:39:31.126Z,38.80
2023-04-28T07:40:31.127Z,38.77
2023-04-28T07:41:31.079Z,38.87
2023-04-28T07:42:31.105Z,39.02
2023-04-28T07:43:31.096Z,39.15
2023-04-28T07:44:31.124Z,39.14
2023-04-28T07:45:31.104Z,39.01
2023-04-28T07:46:31.179Z,38.97
2023-04-28T07:47:31.175Z,39.20
2023-04-28T07:48:31.109Z,39.20
2023-04-28T07:49:31.107Z,39.16
2023-04-28T07:50:31.090Z,39.03
2023-04-28T07:51:31.097Z,39.06
2023-04-28T07:52:31.112Z,38.93
2023-04-28T07:53:31.106Z,39.07
2023-04-28T07:54:31.094Z,39.31
2023-04-28T07:55:31.078Z,39.11
2023-04-28T07:56:31.147Z,38.94
2023-04-28T07:57:31.176Z,38.95
2023-04-28T07:58:31.179Z,39.08
2023-04-28T07:59:31.179Z,39.04
2023-04-28T08:00:31.212Z,38.84
2023-04-28T08:01:31.259Z,38.83
2023-04-28T08:02:31.834Z,38.90
2023-04-28T08:03:31.433Z,39.15
2023-04-28T08:04:31.645Z,39.02
2023-04-28T08:05:31.649Z,38.76
2023-04-28T08:06:31.436Z,38.42
2023-04-28T08:07:31.450Z,38.52
2023-04-28T08:08:31.507Z,38.59
2023-04-28T08:09:31.515Z,38.63
2023-04-28T08:10:31.569Z,38.78
2023-04-28T08:11:31.555Z,38.82
2023-04-28T08:12:31.592Z,38.82
2023-04-28T08:13:31.649Z,39.12
2023-04-28T08:14:31.629Z,38.98
2023-04-28T08:15:31.691Z,39.12
2023-04-28T08:16:31.644Z,39.29
2023-04-28T08:17:31.736Z,39.08
2023-04-28T08:18:31.706Z,39.24
2023-04-28T08:19:31.663Z,39.27
2023-04-28T08:20:31.657Z,39.24
2023-04-28T08:21:31.686Z,39.34
2023-04-28T08:22:31.718Z,39.37
2023-04-28T08:23:31.642Z,39.56
2023-04-28T08:24:31.635Z,39.57
2023-04-28T08:25:31.617Z,39.54
2023-04-28T08:26:31.625Z,39.54
2023-04-28T08:27:31.678Z,39.51
2023-04-28T08:28:31.653Z,39.64
2023-04-28T08:29:31.696Z,39.86
2023-04-28T08:30:31.636Z,39.69
2023-04-28T08:31:31.608Z,39.78
2023-04-28T08:32:31.697Z,39.82
2023-04-28T08:33:31.621Z,39.55
2023-04-28T08:34:31.586Z,39.62
2023-04-28T08:35:31.607Z,39.97
2023-04-28T08:36:31.607Z,39.91
2023-04-28T08:37:31.645Z,40.06
2023-04-28T08:38:31.659Z,39.76
2023-04-28T08:39:31.670Z,39.94
2023-04-28T08:40:31.719Z,39.86
2023-04-28T08:41:31.688Z,39.63
2023-04-28T08:42:31.747Z,39.75
2023-04-28T08:43:31.758Z,39.79
2023-04-28T08:44:31.802Z,39.64
2023-04-28T08:45:31.825Z,39.70
2023-04-28T08:46:31.916Z,40.03
2023-04-28T08:47:31.922Z,39.83
2023-04-28T08:48:31.890Z,40.02
2023-04-28T08:49:31.932Z,39.79
2023-04-28T08:50:31.972Z,39.79
2023-04-28T08:51:31.941Z,39.61
2023-04-28T08:52:32.170Z,39.77
2023-04-28T08:53:32.402Z,39.76
2023-04-28T08:54:32.210Z,39.96
2023-04-28T08:55:31.954Z,39.86
2023-04-28T08:56:31.954Z,39.83
2023-04-28T08:57:32.256Z,39.53
2023-04-28T08:58:31.965Z,39.79
2023-04-28T08:59:31.974Z,40.02
2023-04-28T09:00:31.974Z,39.89
2023-04-28T09:01:32.877Z,39.76
2023-04-28T09:02:32.292Z,39.62
2023-04-28T09:03:32.233Z,39.62
2023-04-28T09:04:32.254Z,39.48
2023-04-28T09:05:32.160Z,39.51
2023-04-28T09:06:32.078Z,39.49
2023-04-28T09:07:32.071Z,39.57
2023-04-28T09:08:32.279Z,39.83
2023-04-28T09:09:35.060Z,39.76
2023-04-28T09:10:33.116Z,39.79
2023-04-28T09:11:32.099Z,39.74
2023-04-28T09:12:32.068Z,39.67
2023-04-28T09:13:32.090Z,39.76
2023-04-28T09:14:32.074Z,39.29
2023-04-28T09:15:33.889Z,38.86
2023-04-28T09:16:32.099Z,38.78
2023-04-28T09:17:32.100Z,38.89
2023-04-28T09:18:32.063Z,39.47
2023-04-28T09:19:32.004Z,39.35
2023-04-28T09:20:32.009Z,39.24
2023-04-28T09:21:32.018Z,39.56
2023-04-28T09:22:32.096Z,39.28
2023-04-28T09:23:32.081Z,39.45
2023-04-28T09:24:32.147Z,39.42
2023-04-28T09:25:32.195Z,39.52
2023-04-28T09:26:32.216Z,39.54
2023-04-28T09:27:32.269Z,39.46
2023-04-28T09:28:32.324Z,39.42
2023-04-28T09:29:32.347Z,39.31
2023-04-28T09:30:32.418Z,39.32
2023-04-28T09:31:32.403Z,39.47
2023-04-28T09:32:32.588Z,39.32
2023-04-28T09:33:32.522Z,39.45
2023-04-28T09:34:32.538Z,39.34
2023-04-28T09:35:32.578Z,39.17
2023-04-28T09:36:32.644Z,39.05
2023-04-28T09:37:32.659Z,39.08
2023-04-28T09:38:32.710Z,39.30
2023-04-28T09:39:32.697Z,39.19
2023-04-28T09:40:32.796Z,39.09
2023-04-28T09:41:32.758Z,39.27
2023-04-28T09:42:33.196Z,39.37
2023-04-28T09:43:32.868Z,39.24
2023-04-28T09:44:32.852Z,39.17
2023-04-28T09:45:32.877Z,39.23
2023-04-28T09:46:32.947Z,39.22
2023-04-28T09:47:33.264Z,39.13
2023-04-28T09:48:32.985Z,39.30
2023-04-28T09:49:32.976Z,39.24
2023-04-28T09:50:33.032Z,39.10
2023-04-28T09:51:33.072Z,39.00
2023-04-28T09:52:33.068Z,39.06
2023-04-28T09:53:33.116Z,39.32
2023-04-28T09:54:33.084Z,39.07
2023-04-28T09:55:33.120Z,39.15
2023-04-28T09:56:33.132Z,39.21
2023-04-28T09:57:33.228Z,39.10
2023-04-28T09:58:33.199Z,39.09
2023-04-28T09:59:33.196Z,39.00
2023-04-28T10:00:33.231Z,39.16
2023-04-28T10:01:33.296Z,39.15
2023-04-28T10:03:34.320Z,39.35
2023-04-28T10:04:33.411Z,39.24
2023-04-28T10:05:33.361Z,39.33
2023-04-28T10:06:33.264Z,39.32
2023-04-28T10:07:33.251Z,39.19
2023-04-28T10:08:33.700Z,39.34
2023-04-28T10:09:33.202Z,39.38
2023-04-28T10:10:33.197Z,39.42
2023-04-28T10:11:33.200Z,39.40
2023-04-28T10:12:33.185Z,39.26
2023-04-28T10:13:33.214Z,39.75
2023-04-28T10:14:33.180Z,39.32
2023-04-28T10:15:33.196Z,39.51
2023-04-28T10:16:33.265Z,39.63
2023-04-28T10:17:33.164Z,39.62
2023-04-28T10:18:33.115Z,39.81
2023-04-28T10:19:33.278Z,40.02
2023-04-28T10:20:33.131Z,40.06
2023-04-28T10:21:33.107Z,40.16
2023-04-28T10:22:33.114Z,40.42
2023-04-28T10:23:33.226Z,40.39
2023-04-28T10:24:33.106Z,40.70
2023-04-28T10:25:33.099Z,40.55
2023-04-28T10:26:33.080Z,40.76
2023-04-28T10:27:33.057Z,40.97
2023-04-28T10:28:33.225Z,41.28
2023-04-28T10:29:33.051Z,41.29
2023-04-28T10:30:33.107Z,41.35
2023-04-28T10:31:33.091Z,41.26
2023-04-28T10:32:33.091Z,41.37
2023-04-28T10:33:33.050Z,41.79
2023-04-28T10:34:33.020Z,42.06
2023-04-28T10:35:33.079Z,41.49
2023-04-28T10:36:36.232Z,41.95
2023-04-28T10:37:33.015Z,42.22
2023-04-28T10:38:32.985Z,42.37
2023-04-28T10:39:33.010Z,42.21
2023-04-28T10:40:33.026Z,41.72
2023-04-28T10:41:32.981Z,41.61
2023-04-28T10:42:32.980Z,41.51
2023-04-28T10:43:32.987Z,41.30
2023-04-28T10:44:32.975Z,41.26
2023-04-28T10:45:35.112Z,41.20
2023-04-28T10:46:32.984Z,41.34
2023-04-28T10:47:32.937Z,41.09
2023-04-28T10:48:33.252Z,41.37
2023-04-28T10:49:32.929Z,41.32
2023-04-28T10:51:33.907Z,41.74
2023-04-28T10:52:32.888Z,41.54
2023-04-28T10:53:33.222Z,41.42
2023-04-28T10:54:32.942Z,41.52
2023-04-28T10:55:32.900Z,41.60
2023-04-28T10:56:32.876Z,41.72
2023-04-28T10:57:32.867Z,41.68
2023-04-28T10:58:32.873Z,41.60
2023-04-28T10:59:32.855Z,41.55
2023-04-28T11:00:32.830Z,41.56
2023-04-28T11:01:32.892Z,41.65
2023-04-28T11:02:33.833Z,41.42
2023-04-28T11:03:33.416Z,41.52
2023-04-28T11:04:33.015Z,41.46
2023-04-28T11:05:32.881Z,41.50
2023-04-28T11:06:32.813Z,41.43
2023-04-28T11:07:32.784Z,41.44
2023-04-28T11:08:32.814Z,41.45
2023-04-28T11:09:32.760Z,41.44
2023-04-28T11:10:32.815Z,41.48
2023-04-28T11:11:32.870Z,41.45
2023-04-28T11:12:32.891Z,41.55
2023-04-28T11:13:32.929Z,41.49
2023-04-28T11:14:32.972Z,41.31
2023-04-28T11:15:33.007Z,41.36
2023-04-28T11:16:33.114Z,41.36
2023-04-28T11:17:33.110Z,41.30
2023-04-28T11:18:33.134Z,41.29
2023-04-28T11:19:33.163Z,41.40
2023-04-28T11:20:33.272Z,41.37
2023-04-28T11:21:33.270Z,41.19
2023-04-28T11:22:33.290Z,41.47
2023-04-28T11:23:33.762Z,41.28
2023-04-28T11:24:33.364Z,41.30
2023-04-28T11:25:33.420Z,41.42
2023-04-28T11:26:33.488Z,41.29
2023-04-28T11:27:33.561Z,41.24
2023-04-28T11:28:33.749Z,41.32
2023-04-28T11:29:33.692Z,41.29
2023-04-28T11:30:33.707Z,41.11
2023-04-28T11:31:33.758Z,41.18
2023-04-28T11:32:33.843Z,41.16
2023-04-28T11:33:34.227Z,41.30
2023-04-28T11:34:33.894Z,41.20
2023-04-28T11:35:33.932Z,41.19
2023-04-28T11:36:33.970Z,41.00
2023-04-28T11:37:34.050Z,41.15
2023-04-28T11:38:34.087Z,41.08
2023-04-28T11:39:34.142Z,41.07
2023-04-28T11:40:34.185Z,40.95
2023-04-28T11:41:34.286Z,41.06
2023-04-28T11:42:34.332Z,41.04
2023-04-28T11:43:44.079Z,41.02
2023-04-28T11:44:35.349Z,40.97
2023-04-28T11:45:34.342Z,41.00
2023-04-28T11:46:34.370Z,40.97
2023-04-28T11:47:34.454Z,41.04
2023-04-28T11:48:34.355Z,40.96
2023-04-28T11:49:34.939Z,40.96
2023-04-28T11:50:34.325Z,40.91
2023-04-28T11:51:34.318Z,40.93
2023-04-28T11:52:34.327Z,40.62
2023-04-28T11:53:34.764Z,40.80
2023-04-28T11:54:34.459Z,40.57
2023-04-28T11:55:35.389Z,40.74
2023-04-28T11:56:34.528Z,40.74
2023-04-28T11:57:34.601Z,40.62
2023-04-28T11:58:34.759Z,40.72
2023-04-28T11:59:34.759Z,40.58
2023-04-28T12:00:34.755Z,40.73
2023-04-28T12:01:34.832Z,40.78
2023-04-28T12:02:35.033Z,40.84
2023-04-28T12:03:35.072Z,40.79
2023-04-28T12:04:34.959Z,40.79
2023-04-28T12:05:35.820Z,40.71
2023-04-28T12:06:35.111Z,40.71
2023-04-28T12:07:35.171Z,40.76
2023-04-28T12:08:35.209Z,40.74
2023-04-28T12:09:35.264Z,40.94
2023-04-28T12:10:35.291Z,40.75
2023-04-28T12:11:35.387Z,40.68
2023-04-28T12:12:49.153Z,40.92
2023-04-28T12:13:36.399Z,40.79
2023-04-28T12:14:35.485Z,40.85
2023-04-28T12:15:35.395Z,40.78
2023-04-28T12:16:35.344Z,40.71
2023-04-28T12:17:35.379Z,40.81
2023-04-28T12:18:35.378Z,40.77
2023-04-28T12:19:35.363Z,40.64
2023-04-28T12:20:35.421Z,40.79
2023-04-28T12:21:37.461Z,40.77
2023-04-28T12:22:35.369Z,40.81
2023-04-28T12:23:35.797Z,40.85
2023-04-28T12:24:35.341Z,40.90
2023-04-28T12:25:35.461Z,40.77
2023-04-28T12:26:35.323Z,40.82
2023-04-28T12:27:37.878Z,40.71
2023-04-28T12:28:35.315Z,40.86
2023-04-28T12:29:35.307Z,40.75
2023-04-28T12:30:35.305Z,40.86
2023-04-28T12:31:35.320Z,40.88
2023-04-28T12:32:35.293Z,40.98
2023-04-28T12:33:36.598Z,40.86
2023-04-28T12:34:35.470Z,41.11
2023-04-28T12:35:35.511Z,41.04
2023-04-28T12:36:35.576Z,41.09
2023-04-28T12:37:35.641Z,41.00
2023-04-28T12:38:35.715Z,41.01
2023-04-28T12:39:38.637Z,40.95
2023-04-28T12:40:35.768Z,41.06
2023-04-28T12:41:35.747Z,41.03
2023-04-28T12:42:35.753Z,41.06
2023-04-28T12:43:35.752Z,41.32
2023-04-28T12:44:35.763Z,41.06
2023-04-28T12:45:36.992Z,41.12
2023-04-28T12:46:35.758Z,40.94
2023-04-28T12:47:35.748Z,41.01
2023-04-28T12:48:35.696Z,41.08
2023-04-28T12:49:35.701Z,41.11
2023-04-28T12:50:35.697Z,41.17
2023-04-28T12:51:37.770Z,41.15
2023-04-28T12:52:35.686Z,40.93
2023-04-28T12:53:35.670Z,40.82
2023-04-28T12:54:35.654Z,40.92
2023-04-28T12:55:35.635Z,40.92